sensor_id;sensor_type;location;lat;lon;timestamp;P1;durP1;ratioP1;P2;durP2;ratioP2
14599;SDS011;7386;45.586;12.854;2022-10-15T00:01:39;84.33;;;51.73;;
14599;SDS011;7386;45.586;12.854;2022-10-15T00:04:09;80.57;;;50.23;;
14599;SDS011;7386;45.586;12.854;2022-10-15T00:06:37;88.10;;;52.07;;
14599;SDS011;7386;45.586;12.854;2022-10-15T00:09:06;81.27;;;49.03;;
14599;SDS011;7386;45.586;12.854;2022-10-15T00:11:34;86.80;;;50.67;;
14599;SDS011;7386;45.586;12.854;2022-10-15T00:14:02;82.73;;;50.40;;
14599;SDS011;7386;45.586;12.854;2022-10-15T00:16:31;79.40;;;50.17;;
14599;SDS011;7386;45.586;12.854;2022-10-15T00:18:59;85.27;;;50.00;;
14599;SDS011;7386;45.586;12.854;2022-10-15T00:21:29;82.53;;;50.30;;
14599;SDS011;7386;45.586;12.854;2022-10-15T00:23:57;84.07;;;50.90;;
14599;SDS011;7386;45.586;12.854;2022-10-15T00:26:26;80.67;;;50.37;;
14599;SDS011;7386;45.586;12.854;2022-10-15T00:28:55;86.47;;;49.87;;
14599;SDS011;7386;45.586;12.854;2022-10-15T00:31:25;78.13;;;49.30;;
14599;SDS011;7386;45.586;12.854;2022-10-15T00:33:56;76.13;;;49.57;;
14599;SDS011;7386;45.586;12.854;2022-10-15T00:36:26;82.07;;;49.63;;
14599;SDS011;7386;45.586;12.854;2022-10-15T00:38:58;83.20;;;49.87;;
14599;SDS011;7386;45.586;12.854;2022-10-15T00:41:27;80.23;;;47.77;;
14599;SDS011;7386;45.586;12.854;2022-10-15T00:43:57;79.50;;;49.37;;
14599;SDS011;7386;45.586;12.854;2022-10-15T00:46:28;77.97;;;48.73;;
14599;SDS011;7386;45.586;12.854;2022-10-15T00:49:02;82.50;;;49.80;;
14599;SDS011;7386;45.586;12.854;2022-10-15T00:51:38;85.07;;;50.63;;
14599;SDS011;7386;45.586;12.854;2022-10-15T00:54:10;83.50;;;47.90;;
14599;SDS011;7386;45.586;12.854;2022-10-15T00:56:39;75.53;;;47.43;;
14599;SDS011;7386;45.586;12.854;2022-10-15T00:59:09;75.13;;;48.00;;
14599;SDS011;7386;45.586;12.854;2022-10-15T01:01:39;82.33;;;50.57;;
14599;SDS011;7386;45.586;12.854;2022-10-15T01:04:07;79.80;;;49.57;;
14599;SDS011;7386;45.586;12.854;2022-10-15T01:06:38;81.87;;;50.17;;
14599;SDS011;7386;45.586;12.854;2022-10-15T01:09:06;88.23;;;50.07;;
14599;SDS011;7386;45.586;12.854;2022-10-15T01:11:36;78.40;;;48.67;;
14599;SDS011;7386;45.586;12.854;2022-10-15T01:14:12;80.13;;;47.33;;
14599;SDS011;7386;45.586;12.854;2022-10-15T01:16:51;79.20;;;48.43;;
14599;SDS011;7386;45.586;12.854;2022-10-15T01:19:30;74.17;;;47.30;;
14599;SDS011;7386;45.586;12.854;2022-10-15T01:22:22;75.63;;;48.00;;
14599;SDS011;7386;45.586;12.854;2022-10-15T01:25:08;84.13;;;49.80;;
14599;SDS011;7386;45.586;12.854;2022-10-15T01:27:51;80.53;;;51.23;;
14599;SDS011;7386;45.586;12.854;2022-10-15T01:30:28;84.60;;;50.17;;
14599;SDS011;7386;45.586;12.854;2022-10-15T01:33:09;82.17;;;48.60;;
14599;SDS011;7386;45.586;12.854;2022-10-15T01:35:49;78.83;;;48.73;;
14599;SDS011;7386;45.586;12.854;2022-10-15T01:41:13;82.73;;;49.90;;
14599;SDS011;7386;45.586;12.854;2022-10-15T01:43:47;81.03;;;49.00;;
14599;SDS011;7386;45.586;12.854;2022-10-15T01:46:26;78.70;;;48.13;;
14599;SDS011;7386;45.586;12.854;2022-10-15T01:48:58;78.67;;;48.80;;
14599;SDS011;7386;45.586;12.854;2022-10-15T01:51:29;82.20;;;48.43;;
14599;SDS011;7386;45.586;12.854;2022-10-15T01:56:31;77.97;;;48.97;;
14599;SDS011;7386;45.586;12.854;2022-10-15T01:59:02;81.03;;;48.47;;
14599;SDS011;7386;45.586;12.854;2022-10-15T02:01:33;77.77;;;48.80;;
14599;SDS011;7386;45.586;12.854;2022-10-15T02:04:15;77.07;;;47.23;;
14599;SDS011;7386;45.586;12.854;2022-10-15T02:06:47;81.70;;;49.80;;
14599;SDS011;7386;45.586;12.854;2022-10-15T02:09:21;85.73;;;50.17;;
14599;SDS011;7386;45.586;12.854;2022-10-15T02:11:59;81.30;;;49.93;;
14599;SDS011;7386;45.586;12.854;2022-10-15T02:14:37;78.73;;;47.67;;
14599;SDS011;7386;45.586;12.854;2022-10-15T02:17:12;80.60;;;49.63;;
14599;SDS011;7386;45.586;12.854;2022-10-15T02:19:46;81.37;;;48.60;;
14599;SDS011;7386;45.586;12.854;2022-10-15T02:22:18;79.37;;;48.27;;
14599;SDS011;7386;45.586;12.854;2022-10-15T02:24:52;81.77;;;48.07;;
14599;SDS011;7386;45.586;12.854;2022-10-15T02:27:23;77.53;;;46.93;;
14599;SDS011;7386;45.586;12.854;2022-10-15T02:29:53;76.97;;;49.13;;
14599;SDS011;7386;45.586;12.854;2022-10-15T02:32:25;77.20;;;46.93;;
14599;SDS011;7386;45.586;12.854;2022-10-15T02:34:54;79.67;;;49.80;;
14599;SDS011;7386;45.586;12.854;2022-10-15T02:37:23;78.13;;;49.13;;
14599;SDS011;7386;45.586;12.854;2022-10-15T02:39:54;79.83;;;47.97;;
14599;SDS011;7386;45.586;12.854;2022-10-15T02:42:22;77.97;;;48.90;;
14599;SDS011;7386;45.586;12.854;2022-10-15T02:44:51;77.97;;;48.40;;
14599;SDS011;7386;45.586;12.854;2022-10-15T02:47:20;78.53;;;47.83;;
14599;SDS011;7386;45.586;12.854;2022-10-15T02:49:54;76.70;;;47.33;;
14599;SDS011;7386;45.586;12.854;2022-10-15T02:52:23;74.37;;;47.17;;
14599;SDS011;7386;45.586;12.854;2022-10-15T02:54:51;89.63;;;50.07;;
14599;SDS011;7386;45.586;12.854;2022-10-15T02:57:20;82.33;;;48.47;;
14599;SDS011;7386;45.586;12.854;2022-10-15T02:59:48;82.60;;;49.73;;
14599;SDS011;7386;45.586;12.854;2022-10-15T03:02:16;80.67;;;48.13;;
14599;SDS011;7386;45.586;12.854;2022-10-15T03:04:45;78.13;;;47.63;;
14599;SDS011;7386;45.586;12.854;2022-10-15T03:07:14;80.23;;;48.23;;
14599;SDS011;7386;45.586;12.854;2022-10-15T03:09:43;76.77;;;48.70;;
14599;SDS011;7386;45.586;12.854;2022-10-15T03:12:11;77.70;;;48.43;;
14599;SDS011;7386;45.586;12.854;2022-10-15T03:14:39;78.43;;;46.90;;
14599;SDS011;7386;45.586;12.854;2022-10-15T03:17:07;72.97;;;45.90;;
14599;SDS011;7386;45.586;12.854;2022-10-15T03:19:35;78.30;;;47.73;;
14599;SDS011;7386;45.586;12.854;2022-10-15T03:22:03;81.27;;;50.50;;
14599;SDS011;7386;45.586;12.854;2022-10-15T03:24:33;77.27;;;47.37;;
14599;SDS011;7386;45.586;12.854;2022-10-15T03:27:01;79.80;;;48.97;;
14599;SDS011;7386;45.586;12.854;2022-10-15T03:29:30;72.73;;;46.53;;
14599;SDS011;7386;45.586;12.854;2022-10-15T03:32:01;76.40;;;44.87;;
14599;SDS011;7386;45.586;12.854;2022-10-15T03:34:29;75.73;;;46.13;;
14599;SDS011;7386;45.586;12.854;2022-10-15T03:36:57;77.10;;;47.13;;
14599;SDS011;7386;45.586;12.854;2022-10-15T03:39:26;78.43;;;46.13;;
14599;SDS011;7386;45.586;12.854;2022-10-15T03:41:55;74.53;;;45.63;;
14599;SDS011;7386;45.586;12.854;2022-10-15T03:44:24;79.33;;;47.10;;
14599;SDS011;7386;45.586;12.854;2022-10-15T03:46:52;78.10;;;46.97;;
14599;SDS011;7386;45.586;12.854;2022-10-15T03:49:20;80.67;;;48.57;;
14599;SDS011;7386;45.586;12.854;2022-10-15T03:51:48;81.77;;;46.73;;
14599;SDS011;7386;45.586;12.854;2022-10-15T03:54:17;77.47;;;46.33;;
14599;SDS011;7386;45.586;12.854;2022-10-15T03:56:45;74.77;;;46.27;;
14599;SDS011;7386;45.586;12.854;2022-10-15T03:59:14;70.97;;;44.50;;
14599;SDS011;7386;45.586;12.854;2022-10-15T04:01:43;76.90;;;46.17;;
14599;SDS011;7386;45.586;12.854;2022-10-15T04:04:11;75.30;;;45.93;;
14599;SDS011;7386;45.586;12.854;2022-10-15T04:06:39;69.07;;;44.70;;
14599;SDS011;7386;45.586;12.854;2022-10-15T04:09:09;76.00;;;45.77;;
14599;SDS011;7386;45.586;12.854;2022-10-15T04:11:37;71.13;;;44.67;;
14599;SDS011;7386;45.586;12.854;2022-10-15T04:14:05;74.57;;;45.33;;
14599;SDS011;7386;45.586;12.854;2022-10-15T04:16:35;74.73;;;45.40;;
14599;SDS011;7386;45.586;12.854;2022-10-15T04:19:03;69.37;;;42.70;;
14599;SDS011;7386;45.586;12.854;2022-10-15T04:21:36;69.80;;;44.53;;
14599;SDS011;7386;45.586;12.854;2022-10-15T04:24:04;74.73;;;43.13;;
14599;SDS011;7386;45.586;12.854;2022-10-15T04:26:33;78.07;;;45.10;;
14599;SDS011;7386;45.586;12.854;2022-10-15T04:29:01;74.33;;;45.33;;
14599;SDS011;7386;45.586;12.854;2022-10-15T04:31:29;73.03;;;45.03;;
14599;SDS011;7386;45.586;12.854;2022-10-15T04:34:00;72.27;;;44.57;;
14599;SDS011;7386;45.586;12.854;2022-10-15T04:36:28;68.90;;;43.23;;
14599;SDS011;7386;45.586;12.854;2022-10-15T04:38:56;71.10;;;43.87;;
14599;SDS011;7386;45.586;12.854;2022-10-15T04:41:24;70.63;;;43.87;;
14599;SDS011;7386;45.586;12.854;2022-10-15T04:43:52;68.00;;;43.13;;
14599;SDS011;7386;45.586;12.854;2022-10-15T04:46:21;71.50;;;42.87;;
14599;SDS011;7386;45.586;12.854;2022-10-15T04:48:49;63.60;;;42.30;;
14599;SDS011;7386;45.586;12.854;2022-10-15T04:51:24;70.57;;;44.23;;
14599;SDS011;7386;45.586;12.854;2022-10-15T04:53:53;74.10;;;45.60;;
14599;SDS011;7386;45.586;12.854;2022-10-15T04:56:21;72.53;;;45.50;;
14599;SDS011;7386;45.586;12.854;2022-10-15T04:58:50;70.07;;;44.60;;
14599;SDS011;7386;45.586;12.854;2022-10-15T05:01:18;69.40;;;43.80;;
14599;SDS011;7386;45.586;12.854;2022-10-15T05:03:47;69.70;;;45.57;;
14599;SDS011;7386;45.586;12.854;2022-10-15T05:06:16;71.23;;;45.17;;
14599;SDS011;7386;45.586;12.854;2022-10-15T05:08:47;71.37;;;45.30;;
14599;SDS011;7386;45.586;12.854;2022-10-15T05:11:17;71.13;;;45.47;;
14599;SDS011;7386;45.586;12.854;2022-10-15T05:13:47;67.93;;;44.70;;
14599;SDS011;7386;45.586;12.854;2022-10-15T05:16:16;72.00;;;45.73;;
14599;SDS011;7386;45.586;12.854;2022-10-15T05:18:46;66.37;;;44.03;;
14599;SDS011;7386;45.586;12.854;2022-10-15T05:21:16;66.37;;;43.93;;
14599;SDS011;7386;45.586;12.854;2022-10-15T05:23:45;67.00;;;44.63;;
14599;SDS011;7386;45.586;12.854;2022-10-15T05:26:17;73.43;;;43.90;;
14599;SDS011;7386;45.586;12.854;2022-10-15T05:28:47;64.00;;;41.80;;
14599;SDS011;7386;45.586;12.854;2022-10-15T05:31:16;63.03;;;42.50;;
14599;SDS011;7386;45.586;12.854;2022-10-15T05:33:45;67.07;;;44.50;;
14599;SDS011;7386;45.586;12.854;2022-10-15T05:36:14;68.30;;;42.87;;
14599;SDS011;7386;45.586;12.854;2022-10-15T05:38:43;65.00;;;43.37;;
14599;SDS011;7386;45.586;12.854;2022-10-15T05:41:13;67.47;;;44.70;;
14599;SDS011;7386;45.586;12.854;2022-10-15T05:43:43;69.63;;;44.07;;
14599;SDS011;7386;45.586;12.854;2022-10-15T05:46:13;66.80;;;43.77;;
14599;SDS011;7386;45.586;12.854;2022-10-15T05:48:41;63.43;;;42.47;;
14599;SDS011;7386;45.586;12.854;2022-10-15T05:51:11;68.20;;;44.33;;
14599;SDS011;7386;45.586;12.854;2022-10-15T05:53:39;67.33;;;44.77;;
14599;SDS011;7386;45.586;12.854;2022-10-15T05:56:08;67.23;;;44.97;;
14599;SDS011;7386;45.586;12.854;2022-10-15T05:58:37;67.57;;;44.40;;
14599;SDS011;7386;45.586;12.854;2022-10-15T06:01:07;68.50;;;45.77;;
14599;SDS011;7386;45.586;12.854;2022-10-15T06:03:38;69.93;;;47.13;;
14599;SDS011;7386;45.586;12.854;2022-10-15T06:06:12;66.03;;;43.87;;
14599;SDS011;7386;45.586;12.854;2022-10-15T06:08:41;72.70;;;46.40;;
14599;SDS011;7386;45.586;12.854;2022-10-15T06:11:09;72.87;;;45.77;;
14599;SDS011;7386;45.586;12.854;2022-10-15T06:13:37;72.03;;;46.47;;
14599;SDS011;7386;45.586;12.854;2022-10-15T06:16:08;71.80;;;48.93;;
14599;SDS011;7386;45.586;12.854;2022-10-15T06:18:37;67.23;;;46.57;;
14599;SDS011;7386;45.586;12.854;2022-10-15T06:21:05;70.03;;;46.93;;
14599;SDS011;7386;45.586;12.854;2022-10-15T06:23:34;69.57;;;46.27;;
14599;SDS011;7386;45.586;12.854;2022-10-15T06:26:03;70.47;;;45.97;;
14599;SDS011;7386;45.586;12.854;2022-10-15T06:28:32;68.50;;;46.80;;
14599;SDS011;7386;45.586;12.854;2022-10-15T06:31:01;72.13;;;47.53;;
14599;SDS011;7386;45.586;12.854;2022-10-15T06:33:31;66.50;;;44.67;;
14599;SDS011;7386;45.586;12.854;2022-10-15T06:35:59;68.07;;;44.20;;
14599;SDS011;7386;45.586;12.854;2022-10-15T06:38:28;57.43;;;37.80;;
14599;SDS011;7386;45.586;12.854;2022-10-15T06:40:57;54.10;;;35.30;;
14599;SDS011;7386;45.586;12.854;2022-10-15T06:43:25;51.83;;;36.37;;
14599;SDS011;7386;45.586;12.854;2022-10-15T06:45:58;56.30;;;37.37;;
14599;SDS011;7386;45.586;12.854;2022-10-15T06:48:26;51.93;;;35.93;;
14599;SDS011;7386;45.586;12.854;2022-10-15T06:50:57;52.53;;;36.33;;
14599;SDS011;7386;45.586;12.854;2022-10-15T06:53:26;50.77;;;34.97;;
14599;SDS011;7386;45.586;12.854;2022-10-15T06:55:55;50.53;;;35.50;;
14599;SDS011;7386;45.586;12.854;2022-10-15T06:58:24;54.20;;;36.00;;
14599;SDS011;7386;45.586;12.854;2022-10-15T07:00:58;58.63;;;38.07;;
14599;SDS011;7386;45.586;12.854;2022-10-15T07:03:26;49.27;;;34.93;;
14599;SDS011;7386;45.586;12.854;2022-10-15T07:05:54;52.67;;;37.37;;
14599;SDS011;7386;45.586;12.854;2022-10-15T07:08:25;57.57;;;38.63;;
14599;SDS011;7386;45.586;12.854;2022-10-15T07:10:53;56.93;;;38.17;;
14599;SDS011;7386;45.586;12.854;2022-10-15T07:13:21;55.10;;;37.80;;
14599;SDS011;7386;45.586;12.854;2022-10-15T07:15:49;51.30;;;36.27;;
14599;SDS011;7386;45.586;12.854;2022-10-15T07:18:21;55.47;;;37.87;;
14599;SDS011;7386;45.586;12.854;2022-10-15T07:20:49;59.67;;;41.07;;
14599;SDS011;7386;45.586;12.854;2022-10-15T07:23:17;62.17;;;41.87;;
14599;SDS011;7386;45.586;12.854;2022-10-15T07:25:53;57.50;;;40.63;;
14599;SDS011;7386;45.586;12.854;2022-10-15T07:28:23;54.50;;;37.93;;
14599;SDS011;7386;45.586;12.854;2022-10-15T07:30:52;51.83;;;37.43;;
14599;SDS011;7386;45.586;12.854;2022-10-15T07:33:20;50.63;;;36.23;;
14599;SDS011;7386;45.586;12.854;2022-10-15T07:35:48;52.57;;;37.67;;
14599;SDS011;7386;45.586;12.854;2022-10-15T07:38:16;50.37;;;36.27;;
14599;SDS011;7386;45.586;12.854;2022-10-15T07:40:45;48.83;;;36.07;;
14599;SDS011;7386;45.586;12.854;2022-10-15T07:43:14;47.97;;;34.50;;
14599;SDS011;7386;45.586;12.854;2022-10-15T07:45:46;49.13;;;35.17;;
14599;SDS011;7386;45.586;12.854;2022-10-15T07:48:15;56.87;;;39.70;;
14599;SDS011;7386;45.586;12.854;2022-10-15T07:50:44;56.13;;;39.13;;
14599;SDS011;7386;45.586;12.854;2022-10-15T07:53:13;51.37;;;37.33;;
14599;SDS011;7386;45.586;12.854;2022-10-15T07:55:45;50.50;;;36.17;;
14599;SDS011;7386;45.586;12.854;2022-10-15T07:58:15;50.73;;;35.17;;
14599;SDS011;7386;45.586;12.854;2022-10-15T08:00:44;46.67;;;34.23;;
14599;SDS011;7386;45.586;12.854;2022-10-15T08:03:12;50.23;;;36.57;;
14599;SDS011;7386;45.586;12.854;2022-10-15T08:05:40;54.00;;;36.37;;
14599;SDS011;7386;45.586;12.854;2022-10-15T08:08:08;52.50;;;36.63;;
14599;SDS011;7386;45.586;12.854;2022-10-15T08:10:36;53.50;;;36.90;;
14599;SDS011;7386;45.586;12.854;2022-10-15T08:13:05;54.07;;;38.27;;
14599;SDS011;7386;45.586;12.854;2022-10-15T08:15:34;48.50;;;35.73;;
14599;SDS011;7386;45.586;12.854;2022-10-15T08:18:05;48.30;;;34.58;;
14599;SDS011;7386;45.586;12.854;2022-10-15T08:20:35;43.92;;;31.58;;
14599;SDS011;7386;45.586;12.854;2022-10-15T08:23:03;46.33;;;33.67;;
14599;SDS011;7386;45.586;12.854;2022-10-15T08:25:32;42.40;;;31.23;;
14599;SDS011;7386;45.586;12.854;2022-10-15T08:28:00;45.60;;;32.60;;
14599;SDS011;7386;45.586;12.854;2022-10-15T08:30:28;42.35;;;32.28;;
14599;SDS011;7386;45.586;12.854;2022-10-15T08:32:58;46.57;;;32.00;;
14599;SDS011;7386;45.586;12.854;2022-10-15T08:35:26;44.45;;;31.63;;
14599;SDS011;7386;45.586;12.854;2022-10-15T08:37:54;45.35;;;32.65;;
14599;SDS011;7386;45.586;12.854;2022-10-15T08:40:22;43.67;;;31.25;;
14599;SDS011;7386;45.586;12.854;2022-10-15T08:42:51;42.55;;;32.38;;
14599;SDS011;7386;45.586;12.854;2022-10-15T08:45:21;44.88;;;32.80;;
14599;SDS011;7386;45.586;12.854;2022-10-15T08:47:55;44.97;;;33.13;;
14599;SDS011;7386;45.586;12.854;2022-10-15T08:50:33;44.00;;;32.67;;
14599;SDS011;7386;45.586;12.854;2022-10-15T08:53:08;47.92;;;35.17;;
14599;SDS011;7386;45.586;12.854;2022-10-15T08:55:39;48.97;;;35.83;;
14599;SDS011;7386;45.586;12.854;2022-10-15T08:58:11;51.05;;;37.00;;
14599;SDS011;7386;45.586;12.854;2022-10-15T09:00:45;47.75;;;36.10;;
14599;SDS011;7386;45.586;12.854;2022-10-15T09:03:26;49.17;;;36.03;;
14599;SDS011;7386;45.586;12.854;2022-10-15T09:06:02;49.42;;;35.33;;
14599;SDS011;7386;45.586;12.854;2022-10-15T09:08:37;44.10;;;32.95;;
14599;SDS011;7386;45.586;12.854;2022-10-15T09:11:14;44.85;;;32.67;;
14599;SDS011;7386;45.586;12.854;2022-10-15T09:13:50;42.15;;;31.95;;
14599;SDS011;7386;45.586;12.854;2022-10-15T09:16:19;44.15;;;32.67;;
14599;SDS011;7386;45.586;12.854;2022-10-15T09:18:50;44.15;;;32.28;;
14599;SDS011;7386;45.586;12.854;2022-10-15T09:21:20;45.42;;;33.30;;
14599;SDS011;7386;45.586;12.854;2022-10-15T09:23:51;43.45;;;32.05;;
14599;SDS011;7386;45.586;12.854;2022-10-15T09:26:24;40.80;;;31.05;;
14599;SDS011;7386;45.586;12.854;2022-10-15T09:28:58;43.28;;;33.03;;
14599;SDS011;7386;45.586;12.854;2022-10-15T09:31:33;41.42;;;32.13;;
14599;SDS011;7386;45.586;12.854;2022-10-15T09:34:11;47.53;;;35.30;;
14599;SDS011;7386;45.586;12.854;2022-10-15T09:36:47;45.80;;;33.67;;
14599;SDS011;7386;45.586;12.854;2022-10-15T09:39:34;43.90;;;33.42;;
14599;SDS011;7386;45.586;12.854;2022-10-15T09:42:10;43.65;;;33.78;;
14599;SDS011;7386;45.586;12.854;2022-10-15T09:44:47;41.70;;;31.80;;
14599;SDS011;7386;45.586;12.854;2022-10-15T09:47:16;44.10;;;33.20;;
14599;SDS011;7386;45.586;12.854;2022-10-15T09:49:50;47.40;;;33.58;;
14599;SDS011;7386;45.586;12.854;2022-10-15T09:52:20;49.60;;;33.97;;
14599;SDS011;7386;45.586;12.854;2022-10-15T09:54:58;54.92;;;33.65;;
14599;SDS011;7386;45.586;12.854;2022-10-15T09:57:32;54.25;;;32.25;;
14599;SDS011;7386;45.586;12.854;2022-10-15T10:00:04;46.75;;;33.40;;
14599;SDS011;7386;45.586;12.854;2022-10-15T10:02:35;58.03;;;32.90;;
14599;SDS011;7386;45.586;12.854;2022-10-15T10:05:25;71.55;;;33.85;;
14599;SDS011;7386;45.586;12.854;2022-10-15T10:08:05;57.80;;;32.03;;
14599;SDS011;7386;45.586;12.854;2022-10-15T10:10:36;52.97;;;33.60;;
14599;SDS011;7386;45.586;12.854;2022-10-15T10:13:19;49.28;;;34.70;;
14599;SDS011;7386;45.586;12.854;2022-10-15T10:15:51;46.95;;;34.83;;
14599;SDS011;7386;45.586;12.854;2022-10-15T10:18:24;42.50;;;31.92;;
14599;SDS011;7386;45.586;12.854;2022-10-15T10:20:55;46.97;;;33.00;;
14599;SDS011;7386;45.586;12.854;2022-10-15T10:23:28;42.38;;;33.25;;
14599;SDS011;7386;45.586;12.854;2022-10-15T10:26:00;44.92;;;33.03;;
14599;SDS011;7386;45.586;12.854;2022-10-15T10:28:31;41.65;;;32.63;;
14599;SDS011;7386;45.586;12.854;2022-10-15T10:31:08;45.03;;;32.13;;
14599;SDS011;7386;45.586;12.854;2022-10-15T10:33:41;39.15;;;31.23;;
14599;SDS011;7386;45.586;12.854;2022-10-15T10:36:20;40.90;;;30.25;;
14599;SDS011;7386;45.586;12.854;2022-10-15T10:38:54;39.85;;;29.73;;
14599;SDS011;7386;45.586;12.854;2022-10-15T10:41:24;42.80;;;30.38;;
14599;SDS011;7386;45.586;12.854;2022-10-15T10:44:20;40.47;;;30.70;;
14599;SDS011;7386;45.586;12.854;2022-10-15T10:49:45;43.47;;;32.75;;
14599;SDS011;7386;45.586;12.854;2022-10-15T10:52:23;41.72;;;32.47;;
14599;SDS011;7386;45.586;12.854;2022-10-15T10:54:59;45.20;;;32.22;;
14599;SDS011;7386;45.586;12.854;2022-10-15T10:57:40;42.05;;;32.58;;
14599;SDS011;7386;45.586;12.854;2022-10-15T11:00:12;41.53;;;32.63;;
14599;SDS011;7386;45.586;12.854;2022-10-15T11:02:44;43.42;;;33.05;;
14599;SDS011;7386;45.586;12.854;2022-10-15T11:05:13;42.42;;;32.83;;
14599;SDS011;7386;45.586;12.854;2022-10-15T11:07:48;43.65;;;33.70;;
14599;SDS011;7386;45.586;12.854;2022-10-15T11:10:23;43.72;;;33.05;;
14599;SDS011;7386;45.586;12.854;2022-10-15T11:13:01;47.17;;;34.85;;
14599;SDS011;7386;45.586;12.854;2022-10-15T11:15:43;42.63;;;33.30;;
14599;SDS011;7386;45.586;12.854;2022-10-15T11:18:20;45.38;;;34.90;;
14599;SDS011;7386;45.586;12.854;2022-10-15T11:21:03;43.78;;;34.33;;
14599;SDS011;7386;45.586;12.854;2022-10-15T11:23:45;43.13;;;33.70;;
14599;SDS011;7386;45.586;12.854;2022-10-15T11:26:29;47.70;;;35.30;;
14599;SDS011;7386;45.586;12.854;2022-10-15T11:29:26;45.70;;;34.85;;
14599;SDS011;7386;45.586;12.854;2022-10-15T11:32:02;49.30;;;36.90;;
14599;SDS011;7386;45.586;12.854;2022-10-15T11:34:44;47.53;;;37.38;;
14599;SDS011;7386;45.586;12.854;2022-10-15T11:37:29;46.35;;;36.03;;
14599;SDS011;7386;45.586;12.854;2022-10-15T11:40:13;48.53;;;37.58;;
14599;SDS011;7386;45.586;12.854;2022-10-15T11:42:50;48.35;;;36.17;;
14599;SDS011;7386;45.586;12.854;2022-10-15T11:48:30;49.60;;;36.72;;
14599;SDS011;7386;45.586;12.854;2022-10-15T11:51:07;51.55;;;39.17;;
14599;SDS011;7386;45.586;12.854;2022-10-15T11:53:52;54.70;;;39.90;;
14599;SDS011;7386;45.586;12.854;2022-10-15T11:56:42;55.88;;;40.22;;
14599;SDS011;7386;45.586;12.854;2022-10-15T11:59:16;54.85;;;41.38;;
14599;SDS011;7386;45.586;12.854;2022-10-15T12:01:53;54.88;;;39.72;;
14599;SDS011;7386;45.586;12.854;2022-10-15T12:04:28;51.85;;;39.83;;
14599;SDS011;7386;45.586;12.854;2022-10-15T12:07:03;49.53;;;38.45;;
14599;SDS011;7386;45.586;12.854;2022-10-15T12:09:34;50.95;;;38.03;;
14599;SDS011;7386;45.586;12.854;2022-10-15T12:12:07;48.75;;;37.88;;
14599;SDS011;7386;45.586;12.854;2022-10-15T12:14:45;48.50;;;38.13;;
14599;SDS011;7386;45.586;12.854;2022-10-15T12:17:20;49.35;;;38.25;;
14599;SDS011;7386;45.586;12.854;2022-10-15T12:19:53;47.03;;;37.08;;
14599;SDS011;7386;45.586;12.854;2022-10-15T12:22:30;52.22;;;38.33;;
14599;SDS011;7386;45.586;12.854;2022-10-15T12:25:00;49.40;;;36.78;;
14599;SDS011;7386;45.586;12.854;2022-10-15T12:27:31;49.40;;;37.45;;
14599;SDS011;7386;45.586;12.854;2022-10-15T12:30:10;48.00;;;37.65;;
14599;SDS011;7386;45.586;12.854;2022-10-15T12:32:59;45.38;;;36.42;;
14599;SDS011;7386;45.586;12.854;2022-10-15T12:35:36;49.70;;;38.03;;
14599;SDS011;7386;45.586;12.854;2022-10-15T12:38:17;46.90;;;36.97;;
14599;SDS011;7386;45.586;12.854;2022-10-15T12:40:54;51.35;;;36.42;;
14599;SDS011;7386;45.586;12.854;2022-10-15T12:43:26;47.97;;;36.05;;
14599;SDS011;7386;45.586;12.854;2022-10-15T12:45:56;50.28;;;36.63;;
14599;SDS011;7386;45.586;12.854;2022-10-15T12:48:30;47.80;;;36.67;;
14599;SDS011;7386;45.586;12.854;2022-10-15T12:57:00;47.03;;;34.13;;
14599;SDS011;7386;45.586;12.854;2022-10-15T12:59:51;50.10;;;36.53;;
14599;SDS011;7386;45.586;12.854;2022-10-15T13:02:32;45.10;;;34.90;;
14599;SDS011;7386;45.586;12.854;2022-10-15T13:05:04;45.25;;;35.78;;
14599;SDS011;7386;45.586;12.854;2022-10-15T13:07:35;41.63;;;33.42;;
14599;SDS011;7386;45.586;12.854;2022-10-15T13:10:15;43.03;;;33.53;;
14599;SDS011;7386;45.586;12.854;2022-10-15T13:12:49;44.00;;;34.75;;
14599;SDS011;7386;45.586;12.854;2022-10-15T13:15:21;43.65;;;34.45;;
14599;SDS011;7386;45.586;12.854;2022-10-15T13:17:52;49.97;;;34.50;;
14599;SDS011;7386;45.586;12.854;2022-10-15T13:20:32;46.30;;;35.45;;
14599;SDS011;7386;45.586;12.854;2022-10-15T13:23:06;48.33;;;35.85;;
14599;SDS011;7386;45.586;12.854;2022-10-15T13:26:10;46.30;;;34.25;;
14599;SDS011;7386;45.586;12.854;2022-10-15T13:28:43;47.58;;;34.58;;
14599;SDS011;7386;45.586;12.854;2022-10-15T13:31:14;46.97;;;33.22;;
14599;SDS011;7386;45.586;12.854;2022-10-15T13:33:50;46.70;;;33.75;;
14599;SDS011;7386;45.586;12.854;2022-10-15T13:36:21;44.08;;;32.88;;
14599;SDS011;7386;45.586;12.854;2022-10-15T13:38:53;44.67;;;33.17;;
14599;SDS011;7386;45.586;12.854;2022-10-15T13:41:23;41.70;;;32.30;;
14599;SDS011;7386;45.586;12.854;2022-10-15T13:43:54;45.55;;;33.75;;
14599;SDS011;7386;45.586;12.854;2022-10-15T13:46:26;44.47;;;31.98;;
14599;SDS011;7386;45.586;12.854;2022-10-15T13:48:56;43.20;;;32.17;;
14599;SDS011;7386;45.586;12.854;2022-10-15T13:51:32;44.17;;;32.17;;
14599;SDS011;7386;45.586;12.854;2022-10-15T13:54:07;42.45;;;32.47;;
14599;SDS011;7386;45.586;12.854;2022-10-15T13:56:37;42.33;;;31.05;;
14599;SDS011;7386;45.586;12.854;2022-10-15T13:59:16;43.20;;;32.35;;
14599;SDS011;7386;45.586;12.854;2022-10-15T14:01:47;40.00;;;31.48;;
14599;SDS011;7386;45.586;12.854;2022-10-15T14:04:18;39.75;;;30.30;;
14599;SDS011;7386;45.586;12.854;2022-10-15T14:06:53;42.53;;;30.20;;
14599;SDS011;7386;45.586;12.854;2022-10-15T14:09:32;38.20;;;30.58;;
14599;SDS011;7386;45.586;12.854;2022-10-15T14:12:03;38.38;;;29.48;;
14599;SDS011;7386;45.586;12.854;2022-10-15T14:14:33;41.75;;;30.38;;
14599;SDS011;7386;45.586;12.854;2022-10-15T14:17:04;36.53;;;28.75;;
14599;SDS011;7386;45.586;12.854;2022-10-15T14:19:34;41.00;;;31.35;;
14599;SDS011;7386;45.586;12.854;2022-10-15T14:22:04;37.72;;;29.30;;
14599;SDS011;7386;45.586;12.854;2022-10-15T14:24:33;40.55;;;30.35;;
14599;SDS011;7386;45.586;12.854;2022-10-15T14:27:04;38.55;;;28.52;;
14599;SDS011;7386;45.586;12.854;2022-10-15T14:29:35;38.05;;;28.63;;
14599;SDS011;7386;45.586;12.854;2022-10-15T14:34:57;39.58;;;29.65;;
14599;SDS011;7386;45.586;12.854;2022-10-15T14:40:13;36.10;;;28.23;;
14599;SDS011;7386;45.586;12.854;2022-10-15T14:42:45;37.83;;;29.40;;
14599;SDS011;7386;45.586;12.854;2022-10-15T14:45:23;38.90;;;29.60;;
14599;SDS011;7386;45.586;12.854;2022-10-15T14:47:54;40.80;;;30.33;;
14599;SDS011;7386;45.586;12.854;2022-10-15T14:50:26;39.40;;;29.80;;
14599;SDS011;7386;45.586;12.854;2022-10-15T14:52:56;37.33;;;28.77;;
14599;SDS011;7386;45.586;12.854;2022-10-15T14:55:28;41.13;;;30.02;;
14599;SDS011;7386;45.586;12.854;2022-10-15T14:57:59;35.58;;;28.13;;
14599;SDS011;7386;45.586;12.854;2022-10-15T15:00:30;39.15;;;29.40;;
14599;SDS011;7386;45.586;12.854;2022-10-15T15:03:02;38.88;;;29.95;;
14599;SDS011;7386;45.586;12.854;2022-10-15T15:05:42;38.50;;;30.45;;
14599;SDS011;7386;45.586;12.854;2022-10-15T15:08:12;38.03;;;29.55;;
14599;SDS011;7386;45.586;12.854;2022-10-15T15:10:41;37.75;;;29.30;;
14599;SDS011;7386;45.586;12.854;2022-10-15T15:13:10;38.85;;;28.77;;